Houghton, Michigan
Current Conditions -  °F | °C
As of 4:53 AM on Saturday 29 Nov 2014 (Local Time) from KCMX Reporting Station
Overcast Overcast  
Wind Chill:   Ceiling: 3100
Heat Index: 21°   Visibility: 10mi
Dew Point: 14°   Wind: 13mph
Humidity: 74%   Direction: 160°SSE
Pressure: 29.65"   Gusts: NA
Location:  47.12°N, 88.57°W
Report Text: KCMX 290953Z AUTO 16011KT 10SM OVC031 M06/M10 A2965 RMK AO2 SLP061 T10611100
Loading
Personal Weather Stations






























Interactive Weather Map New forecast layout! Learn more

10-Day Weather Forecast

Advertisements
Track Severe Weather on mobile